< < Back
Terminal Aerodrome Forecast


Current Version              Previous Versions:   1  2  3  4  5  6  7  8  9  

Terminal Aerodrome Forecast

242
FTUS42 KTAE 241730
TAFTLH
TAF
KTLH 241730Z 2418/2518 02006KT P6SM FEW250
     FM250300 14005KT P6SM BKN100
     FM250900 10009KT P6SM OVC015
     FM251600 20015G20KT P6SM BKN030 OVC040=



Latest METAR

869
SAUS80 KWBC 250400 RRA
MTRTLH
METAR KTLH 250353Z AUTO 00000KT 10SM CLR 21/16 A2995 RMK AO2 SLP141
T02110156


USA.gov is the U.S. government's official web portal to all federal, state and local government web resources and services.